Time;durP1;ratioP1;P1;durP2;ratioP2;P2;SDS_P1;SDS_P2;PMS_P1;PMS_P2;Temp;Humidity;BMP_temperature;BMP_pressure;BME280_temperature;BME280_humidity;BME280_pressure;Samples;Min_cycle;Max_cycle;Signal;HPM_P1;HPM_P2
2022/01/22 00:02:07;;;;;;;66.22;36.15;;;;;;;3.22;66.19;102463.22;5037644;28;20128;-56
2022/01/22 00:04:34;;;;;;;62.90;32.75;;;;;;;3.15;66.44;102457.16;5039202;28;20139;-56
2022/01/22 00:07:02;;;;;;;57.75;32.28;;;;;;;3.12;66.36;102466.66;5038234;28;20038;-56
2022/01/22 00:09:51;;;;;;;61.90;33.78;;;;;;;3.10;66.27;102461.47;5042062;28;20044;-58
2022/01/22 00:13:08;;;;;;;60.50;33.22;;;;;;;3.10;66.41;102472.69;5038315;28;20100;-63
2022/01/22 00:15:11;;;;;;;64.57;34.38;;;;;;;3.12;66.34;102470.09;5040079;28;20041;-57
2022/01/22 00:17:38;;;;;;;62.05;33.13;;;;;;;3.09;66.36;102465.78;5041689;28;20586;-56
2022/01/22 00:20:06;;;;;;;57.92;31.60;;;;;;;3.01;66.30;102477.00;5034142;28;20095;-56
2022/01/22 00:22:35;;;;;;;63.45;33.67;;;;;;;2.93;66.22;102479.56;5034810;28;20132;-60
2022/01/22 00:25:07;;;;;;;60.83;32.75;;;;;;;2.92;66.14;102478.72;5034634;28;20481;-58
2022/01/22 00:27:39;;;;;;;56.88;32.40;;;;;;;2.87;66.30;102479.53;5036294;28;20061;-56
2022/01/22 00:30:08;;;;;;;59.80;32.65;;;;;;;2.81;66.29;102474.34;5035554;28;20037;-56
2022/01/22 00:32:36;;;;;;;64.88;34.72;;;;;;;2.79;66.01;102476.91;5035653;28;20054;-57
2022/01/22 00:35:04;;;;;;;63.42;33.70;;;;;;;2.74;66.04;102481.22;5035700;28;20041;-56
2022/01/22 00:37:31;;;;;;;59.40;31.38;;;;;;;2.68;66.49;102476.91;5035981;28;20045;-56
2022/01/22 00:39:58;;;;;;;67.38;34.42;;;;;;;2.68;65.90;102482.06;5032507;28;20556;-57
2022/01/22 00:42:25;;;;;;;64.05;34.92;;;;;;;2.61;65.79;102480.31;5033153;28;20045;-57
2022/01/22 00:44:52;;;;;;;62.85;35.28;;;;;;;2.61;65.38;102480.31;5033275;28;20042;-57
2022/01/22 00:47:19;;;;;;;62.05;33.33;;;;;;;2.56;65.33;102477.69;5033631;28;20132;-56
2022/01/22 00:49:47;;;;;;;60.08;34.45;;;;;;;2.54;65.37;102476.81;5033147;28;20045;-57
2022/01/22 00:52:13;;;;;;;59.90;32.42;;;;;;;2.55;65.18;102468.19;5033538;28;20056;-56
2022/01/22 00:54:40;;;;;;;65.82;35.15;;;;;;;2.55;64.92;102467.31;5028151;28;20047;-56
2022/01/22 00:57:07;;;;;;;66.07;34.35;;;;;;;2.53;65.01;102471.66;5025175;28;20041;-56
2022/01/22 00:59:34;;;;;;;64.80;35.03;;;;;;;2.57;64.83;102478.56;5033342;28;20056;-56
2022/01/22 01:02:01;;;;;;;69.85;37.00;;;;;;;2.53;64.78;102466.47;5031032;28;20077;-56
2022/01/22 01:04:29;;;;;;;77.35;38.63;;;;;;;2.48;65.00;102473.34;5033198;28;20084;-57
2022/01/22 01:06:55;;;;;;;73.05;37.60;;;;;;;2.48;64.58;102475.94;5032807;28;20037;-56
2022/01/22 01:09:22;;;;;;;78.30;40.08;;;;;;;2.46;64.66;102478.50;5026608;28;20070;-57
2022/01/22 01:11:53;;;;;;;82.18;42.80;;;;;;;2.43;64.60;102476.75;5033361;28;20053;-56
2022/01/22 01:14:28;;;;;;;78.85;40.42;;;;;;;2.43;64.67;102487.13;5036044;28;20045;-55
2022/01/22 01:35:41;;;;;;;69.70;37.60;;;;;;;2.24;64.15;102498.25;5036624;28;20055;-56
2022/01/22 01:38:08;;;;;;;70.70;36.47;;;;;;;2.08;64.40;102492.97;5038656;28;20041;-64
2022/01/22 01:40:39;;;;;;;67.63;37.05;;;;;;;2.14;64.01;102496.44;5032365;28;20045;-57
2022/01/22 01:43:14;;;;;;;71.88;36.80;;;;;;;2.17;63.71;102501.63;5035646;28;20053;-62
2022/01/22 01:45:41;;;;;;;73.97;37.20;;;;;;;2.11;63.78;102495.56;5032074;28;20041;-56
2022/01/22 01:48:13;;;;;;;69.82;38.45;;;;;;;2.14;63.94;102496.44;5036972;28;20044;-56
2022/01/22 01:50:41;;;;;;;65.40;36.13;;;;;;;2.13;63.85;102495.56;5037074;28;20049;-56
2022/01/22 01:57:23;;;;;;;71.90;36.88;;;;;;;2.16;63.59;102502.50;5040117;28;20083;-57
2022/01/22 01:58:47;;;;;;;65.55;33.53;;;;;;;2.11;63.87;102503.34;5038932;28;20041;-56
2022/01/22 02:01:14;;;;;;;65.72;34.40;;;;;;;2.08;63.62;102490.38;5044097;28;20053;-59
2022/01/22 02:03:41;;;;;;;69.28;35.40;;;;;;;2.08;63.58;102490.38;5039203;28;20401;-56
2022/01/22 02:06:07;;;;;;;74.78;37.60;;;;;;;2.06;63.69;102493.81;5044171;28;20059;-56
2022/01/22 02:08:34;;;;;;;78.72;37.72;;;;;;;2.05;63.85;102492.06;5035124;28;20049;-57
2022/01/22 02:11:03;;;;;;;71.85;35.75;;;;;;;2.10;63.72;102487.78;5038189;28;20098;-58
2022/01/22 02:13:47;;;;;;;84.70;39.35;;;;;;;2.10;63.86;102487.78;5045523;28;20056;-56
2022/01/22 02:24:45;;;;;;;83.25;37.95;;;;;;;2.03;64.78;102468.75;5031224;28;20095;-56
2022/01/22 02:27:12;;;;;;;85.68;37.00;;;;;;;1.97;65.05;102466.13;5032075;28;20425;-56
2022/01/22 02:29:39;;;;;;;106.03;37.53;;;;;;;1.95;65.27;102468.69;5031730;28;20444;-57
2022/01/22 02:34:43;;;;;;;69.55;33.92;;;;;;;2.00;65.60;102463.53;5031609;28;20046;-61
2022/01/22 02:37:15;;;;;;;71.65;33.05;;;;;;;2.03;65.60;102457.53;5031914;28;20045;-57
2022/01/22 02:39:50;;;;;;;70.93;33.45;;;;;;;1.95;65.83;102444.53;5027342;28;20045;-57
2022/01/22 02:42:23;;;;;;;65.95;32.55;;;;;;;1.91;66.14;102442.78;5033122;28;20049;-56
2022/01/22 02:44:49;;;;;;;74.03;34.35;;;;;;;1.86;66.22;102442.72;5040677;28;20475;-56
2022/01/22 02:47:17;;;;;;;65.40;33.05;;;;;;;1.78;66.46;102445.28;5040036;28;20045;-60
2022/01/22 02:49:44;;;;;;;86.80;34.47;;;;;;;1.83;66.43;102436.66;5043707;28;20044;-55
2022/01/22 02:52:11;;;;;;;62.17;32.33;;;;;;;1.71;66.93;102433.13;5038497;28;20045;-56
2022/01/22 02:54:39;;;;;;;56.97;30.58;;;;;;;1.69;66.81;102434.84;5044721;28;20048;-57
2022/01/22 02:57:08;;;;;;;59.22;29.88;;;;;;;1.66;66.86;102440.00;5039135;28;20460;-56
2022/01/22 02:59:35;;;;;;;59.35;29.83;;;;;;;1.65;66.87;102439.97;5030110;28;20057;-56
2022/01/22 03:02:03;;;;;;;51.78;28.17;;;;;;;1.62;66.85;102439.09;5041512;28;20041;-56
2022/01/22 03:04:31;;;;;;;43.53;26.42;;;;;;;1.64;66.63;102441.72;5045251;28;20390;-56
2022/01/22 03:06:58;;;;;;;40.88;25.50;;;;;;;1.63;66.89;102434.81;5046934;28;20123;-56
2022/01/22 03:09:31;;;;;;;50.22;26.52;;;;;;;1.60;66.55;102432.19;5044526;28;20049;-56
2022/01/22 03:12:50;;;;;;;53.83;26.45;;;;;;;1.58;66.54;102437.34;5044879;28;20060;-57
2022/01/22 03:17:51;;;;;;;54.13;26.75;;;;;;;1.52;66.12;102436.44;5048489;28;20413;-56
2022/01/22 03:20:36;;;;;;;49.42;27.02;;;;;;;1.44;65.99;102433.78;5026826;28;20096;-56
2022/01/22 03:27:13;;;;;;;57.08;26.88;;;;;;;1.34;66.69;102434.56;5036411;28;20051;-57
2022/01/22 03:28:53;;;;;;;52.70;27.38;;;;;;;1.37;66.25;102434.56;5037091;28;20045;-56
2022/01/22 03:31:20;;;;;;;46.85;25.73;;;;;;;1.31;66.52;102432.81;5035137;28;20041;-55
2022/01/22 03:33:47;;;;;;;46.63;27.27;;;;;;;1.37;66.21;102431.97;5038192;28;20042;-56
2022/01/22 03:36:14;;;;;;;54.08;28.13;;;;;;;1.37;65.90;102439.75;5042310;28;20477;-56
2022/01/22 03:38:42;;;;;;;49.78;30.10;;;;;;;1.31;66.34;102425.06;5038761;28;20100;-56
2022/01/22 03:41:09;;;;;;;53.42;28.40;;;;;;;1.38;65.92;102418.22;5043525;28;20409;-57
2022/01/22 03:43:38;;;;;;;56.72;28.95;;;;;;;1.35;65.97;102424.22;5039493;28;20061;-56
2022/01/22 03:46:05;;;;;;;46.80;28.77;;;;;;;1.13;66.31;102428.31;5038668;28;20045;-56
2022/01/22 03:48:32;;;;;;;50.42;26.88;;;;;;;1.26;66.35;102418.97;5040612;28;20046;-56
2022/01/22 03:50:59;;;;;;;48.00;27.88;;;;;;;1.27;66.09;102424.16;5044094;28;20041;-57
2022/01/22 03:53:26;;;;;;;53.92;30.58;;;;;;;1.28;65.78;102417.25;5042939;28;20056;-55
2022/01/22 03:58:22;;;;;;;56.28;28.92;;;;;;;1.18;66.21;102410.25;5045622;28;20041;-56
2022/01/22 04:00:52;;;;;;;57.42;30.88;;;;;;;1.23;65.92;102403.41;5041920;28;20413;-55
2022/01/22 04:03:32;;;;;;;55.50;30.10;;;;;;;1.26;65.96;102406.91;5031376;28;20049;-56
2022/01/22 04:08:45;;;;;;;54.05;29.70;;;;;;;1.26;65.89;102391.38;5044188;28;20046;-56
2022/01/22 04:11:15;;;;;;;52.58;30.15;;;;;;;1.24;65.91;102387.06;5046810;28;20103;-58
2022/01/22 04:13:43;;;;;;;55.72;30.63;;;;;;;1.13;66.09;102395.59;5030651;28;20053;-56
2022/01/22 04:16:13;;;;;;;58.15;30.40;;;;;;;1.06;66.22;102393.78;5031003;28;20099;-56
2022/01/22 04:26:59;;;;;;;53.50;31.05;;;;;;;1.09;65.62;102406.75;5045851;28;20045;-57
2022/01/22 04:29:27;;;;;;;55.45;31.40;;;;;;;1.12;65.33;102399.00;5042838;28;20048;-60
2022/01/22 04:31:54;;;;;;;49.90;29.83;;;;;;;1.13;64.92;102397.28;5030458;28;20042;-55
2022/01/22 04:34:20;;;;;;;53.80;30.83;;;;;;;1.09;64.79;102393.81;5039833;28;20057;-55
2022/01/22 04:36:47;;;;;;;51.28;29.40;;;;;;;1.06;64.76;102398.94;5035392;28;20481;-57
2022/01/22 04:39:14;;;;;;;51.28;30.38;;;;;;;1.02;64.87;102394.59;5036142;28;20057;-56
2022/01/22 04:41:40;;;;;;;58.15;30.30;;;;;;;0.95;64.52;102404.03;5036204;28;20077;-57
2022/01/22 04:44:08;;;;;;;51.65;31.05;;;;;;;0.83;64.42;102390.97;5041506;28;20048;-56
2022/01/22 04:49:18;;;;;;;51.42;28.77;;;;;;;0.78;64.45;102367.66;5042993;28;20048;-63
2022/01/22 04:57:17;;;;;;;65.30;33.33;;;;;;;0.68;64.46;102365.81;5037977;28;20044;-57
2022/01/22 04:59:44;;;;;;;69.97;33.55;;;;;;;0.71;64.72;102360.72;5045003;28;20048;-58
2022/01/22 05:02:11;;;;;;;76.95;35.90;;;;;;;0.73;64.80;102360.72;5043595;28;20049;-56
2022/01/22 05:04:38;;;;;;;83.22;37.55;;;;;;;0.71;65.05;102360.72;5047178;28;20413;-57
2022/01/22 05:07:05;;;;;;;80.45;36.65;;;;;;;0.70;65.61;102350.34;5045198;28;20115;-57
2022/01/22 05:09:32;;;;;;;81.97;36.83;;;;;;;0.72;65.82;102346.06;5040690;28;20627;-59
2022/01/22 05:11:58;;;;;;;83.07;39.03;;;;;;;0.71;66.21;102328.81;5034533;28;20107;-56
2022/01/22 05:14:25;;;;;;;91.72;40.78;;;;;;;0.77;66.50;102337.50;5048692;28;20045;-57
2022/01/22 05:16:54;;;;;;;92.05;40.28;;;;;;;0.83;66.72;102335.84;5045518;28;20046;-56
2022/01/22 05:19:29;;;;;;;97.97;42.17;;;;;;;0.87;67.08;102333.28;5032734;28;20068;-56
2022/01/22 05:22:02;;;;;;;105.17;44.37;;;;;;;0.97;67.29;102340.28;5029589;28;20489;-56
2022/01/22 05:24:32;;;;;;;108.60;44.15;;;;;;;1.07;67.61;102337.78;5031278;28;20123;-58
2022/01/22 05:37:39;;;;;;;115.75;44.97;;;;;;;1.42;69.35;102360.47;5029411;28;20493;-56
2022/01/22 05:40:07;;;;;;;115.40;44.97;;;;;;;1.46;69.63;102357.94;5029124;28;20383;-59
2022/01/22 05:42:36;;;;;;;109.22;46.58;;;;;;;1.54;69.80;102362.31;5029054;28;20470;-59
2022/01/22 05:45:06;;;;;;;107.90;44.92;;;;;;;1.56;70.14;102366.63;5025430;28;20406;-57
2022/01/22 05:47:34;;;;;;;106.35;43.72;;;;;;;1.54;70.54;102367.47;5028242;28;20807;-58
2022/01/22 05:50:05;;;;;;;110.70;45.05;;;;;;;1.58;70.74;102361.47;5033029;28;20041;-58
2022/01/22 05:52:44;;;;;;;101.25;41.28;;;;;;;1.58;71.30;102361.47;5031204;28;20085;-63
2022/01/22 05:55:40;;;;;;;102.78;43.20;;;;;;;1.60;71.43;102358.03;5034051;28;20100;-58
2022/01/22 06:00:48;;;;;;;105.32;43.70;;;;;;;1.59;71.78;102348.53;5021753;28;20516;-59
2022/01/22 06:03:15;;;;;;;114.75;45.33;;;;;;;1.60;71.94;102341.63;5031123;28;20125;-59
2022/01/22 06:05:42;;;;;;;106.65;43.25;;;;;;;1.60;72.09;102339.03;5032683;28;20073;-58
2022/01/22 06:08:08;;;;;;;110.93;45.78;;;;;;;1.59;72.53;102329.56;5035201;28;20037;-56
2022/01/22 06:10:35;;;;;;;110.05;44.03;;;;;;;1.54;72.85;102326.94;5034339;28;20043;-57
2022/01/22 06:13:14;;;;;;;114.50;45.35;;;;;;;1.52;72.98;102330.38;5035870;28;20048;-56
2022/01/22 06:15:42;;;;;;;104.63;43.25;;;;;;;1.50;72.98;102320.00;5034692;28;20115;-56
2022/01/22 06:18:08;;;;;;;113.43;45.28;;;;;;;1.46;73.29;102320.81;5034419;28;20045;-57
2022/01/22 06:20:35;;;;;;;105.68;44.33;;;;;;;1.42;73.49;102314.78;5028867;28;20081;-56
2022/01/22 06:23:03;;;;;;;113.78;46.65;;;;;;;1.40;73.39;102310.47;5029163;28;20119;-56
2022/01/22 06:25:29;;;;;;;106.60;44.38;;;;;;;1.39;73.76;102308.72;5029556;28;20050;-56
2022/01/22 06:27:56;;;;;;;111.80;44.97;;;;;;;1.37;73.59;102303.56;5030554;28;20045;-57
2022/01/22 06:30:24;;;;;;;101.47;42.30;;;;;;;1.35;73.94;102305.25;5031021;28;20049;-57
2022/01/22 06:32:54;;;;;;;106.30;42.03;;;;;;;1.37;73.90;102302.66;5033796;28;20037;-56
2022/01/22 06:35:21;;;;;;;100.75;43.25;;;;;;;1.37;73.90;102292.31;5031155;28;20081;-55
2022/01/22 06:37:48;;;;;;;92.47;39.10;;;;;;;1.34;73.96;102297.50;5034956;28;20095;-56
2022/01/22 06:42:44;;;;;;;101.20;41.40;;;;;;;1.34;74.07;102305.25;5039719;28;20041;-56
2022/01/22 06:45:15;;;;;;;95.25;41.35;;;;;;;1.35;73.94;102304.41;5027777;28;20128;-56
2022/01/22 06:47:41;;;;;;;99.75;40.80;;;;;;;1.36;73.94;102306.97;5035037;28;20043;-56
2022/01/22 06:50:08;;;;;;;104.10;42.65;;;;;;;1.37;74.11;102307.84;5038699;28;20060;-56
2022/01/22 06:52:35;;;;;;;100.88;40.60;;;;;;;1.33;74.05;102301.78;5032457;28;20564;-57
2022/01/22 06:55:02;;;;;;;94.68;39.20;;;;;;;1.28;74.17;102303.47;5032027;28;20107;-57
2022/01/22 06:57:29;;;;;;;92.10;40.50;;;;;;;1.33;74.18;102306.09;5032163;28;20091;-56
2022/01/22 06:59:57;;;;;;;99.70;39.72;;;;;;;1.33;74.12;102314.72;5032044;28;20045;-57
2022/01/22 07:02:24;;;;;;;85.25;37.10;;;;;;;1.27;74.24;102328.47;5032086;28;20103;-57
2022/01/22 07:04:50;;;;;;;91.13;39.75;;;;;;;1.31;74.19;102321.59;5032004;28;20050;-59
2022/01/22 07:07:17;;;;;;;95.32;41.13;;;;;;;1.33;74.04;102327.63;5030338;28;20045;-56
2022/01/22 07:09:44;;;;;;;92.85;38.40;;;;;;;1.39;73.71;102322.50;5031303;28;20056;-58
2022/01/22 07:12:12;;;;;;;92.63;39.42;;;;;;;1.37;73.64;102319.06;5031307;28;20081;-56
2022/01/22 07:14:39;;;;;;;90.00;39.50;;;;;;;1.40;73.95;102316.50;5029280;28;20053;-58
2022/01/22 07:17:07;;;;;;;90.07;39.53;;;;;;;1.46;73.82;102318.25;5032000;28;20042;-56
2022/01/22 07:19:40;;;;;;;83.60;37.25;;;;;;;1.40;73.64;102310.47;5033151;28;20047;-59
2022/01/22 07:22:29;;;;;;;87.03;38.15;;;;;;;1.43;73.61;102300.13;5047557;28;20503;-57
2022/01/22 07:24:53;;;;;;;89.43;37.95;;;;;;;1.41;73.42;102289.78;5034552;28;20091;-56
2022/01/22 07:27:20;;;;;;;81.47;37.95;;;;;;;1.44;73.72;102300.13;5044357;28;20049;-62
2022/01/22 07:29:48;;;;;;;76.47;32.88;;;;;;;1.53;73.04;102294.16;5032896;28;20047;-56
2022/01/22 07:32:25;;;;;;;83.35;35.13;;;;;;;1.61;72.85;102307.13;5032258;28;20448;-56
2022/01/22 07:34:52;;;;;;;80.85;35.58;;;;;;;1.57;72.91;102297.63;5033751;28;20041;-57
2022/01/22 07:37:18;;;;;;;77.00;34.65;;;;;;;1.75;72.38;102296.84;5031046;28;20050;-59
2022/01/22 07:39:45;;;;;;;69.88;33.05;;;;;;;1.81;72.08;102306.41;5034636;28;20516;-59
2022/01/22 07:42:12;;;;;;;75.88;33.90;;;;;;;1.84;71.65;102312.47;5033311;28;20049;-58
2022/01/22 07:44:38;;;;;;;73.20;33.33;;;;;;;1.90;71.68;102311.59;5036162;28;20053;-58
2022/01/22 07:47:05;;;;;;;71.65;32.78;;;;;;;1.89;71.43;102299.50;5034425;28;20096;-59
2022/01/22 07:49:32;;;;;;;70.57;31.08;;;;;;;1.92;71.31;102291.78;5037449;28;20041;-58
2022/01/22 07:51:58;;;;;;;71.13;32.45;;;;;;;1.96;71.07;102278.84;5033739;28;20445;-60
2022/01/22 07:54:25;;;;;;;67.80;31.13;;;;;;;2.07;71.03;102275.41;5030820;28;20494;-58
2022/01/22 07:56:51;;;;;;;68.28;32.90;;;;;;;2.05;70.98;102278.00;5030602;28;20041;-58
2022/01/22 07:59:18;;;;;;;67.32;30.98;;;;;;;2.04;70.72;102278.00;5034664;28;20052;-60
2022/01/22 08:01:45;;;;;;;67.50;31.08;;;;;;;2.08;71.10;102277.16;5034735;28;20042;-59
2022/01/22 08:04:11;;;;;;;69.93;32.05;;;;;;;2.09;70.78;102274.56;5035849;28;20497;-60
2022/01/22 08:06:38;;;;;;;65.05;29.67;;;;;;;2.08;70.61;102277.16;5035826;28;20595;-59
2022/01/22 08:09:05;;;;;;;64.13;29.63;;;;;;;2.13;70.58;102275.44;5036663;28;20099;-56
2022/01/22 08:11:31;;;;;;;62.33;30.05;;;;;;;2.21;70.27;102266.00;5041281;28;20453;-58
2022/01/22 08:13:58;;;;;;;70.20;31.75;;;;;;;2.35;70.02;102271.22;5031710;28;20134;-59
2022/01/22 08:16:25;;;;;;;67.07;31.27;;;;;;;2.64;69.45;102270.41;5041057;28;20041;-58
2022/01/22 08:18:52;;;;;;;70.13;33.33;;;;;;;2.63;69.05;102257.41;5033383;28;20037;-59
2022/01/22 08:21:18;;;;;;;74.20;33.72;;;;;;;2.63;69.55;102249.66;5030730;28;20493;-58
2022/01/22 08:23:45;;;;;;;67.70;30.08;;;;;;;2.60;69.45;102237.56;5030349;28;20049;-59
2022/01/22 08:26:17;;;;;;;67.53;33.75;;;;;;;2.74;69.25;102241.03;5030527;28;20103;-58
2022/01/22 08:28:53;;;;;;;71.10;32.10;;;;;;;2.89;69.07;102234.97;5030277;28;20076;-58
2022/01/22 08:31:26;;;;;;;69.70;34.05;;;;;;;3.09;68.42;102241.88;5030382;28;20053;-58
2022/01/22 08:36:41;;;;;;;73.28;32.95;;;;;;;3.51;67.75;102224.47;5025681;28;20126;-59
2022/01/22 08:39:07;;;;;;;71.80;32.55;;;;;;;3.55;67.27;102231.38;5033788;28;20060;-58
2022/01/22 08:41:35;;;;;;;73.93;32.92;;;;;;;3.72;66.77;102225.25;5037781;28;20041;-58
2022/01/22 08:44:03;;;;;;;67.88;33.00;;;;;;;3.84;66.48;102227.81;5035203;28;20045;-60
2022/01/22 08:46:30;;;;;;;73.35;33.45;;;;;;;3.71;66.97;102229.59;5041280;28;20122;-58
2022/01/22 08:48:57;;;;;;;68.80;31.88;;;;;;;3.81;66.75;102233.03;5034920;28;20037;-58
2022/01/22 08:51:24;;;;;;;69.78;33.72;;;;;;;3.96;66.73;102255.47;5039846;28;20056;-58
2022/01/22 08:53:51;;;;;;;64.40;33.53;;;;;;;3.99;66.93;102242.47;5034875;28;20090;-60
2022/01/22 08:56:18;;;;;;;70.55;35.70;;;;;;;4.17;66.36;102241.50;5039888;28;20075;-59
2022/01/22 08:58:45;;;;;;;69.57;33.72;;;;;;;4.22;65.85;102254.47;5036493;28;20045;-61
2022/01/22 09:01:11;;;;;;;72.70;34.35;;;;;;;4.49;65.71;102260.38;5039548;28;20052;-63
2022/01/22 09:03:39;;;;;;;76.85;35.17;;;;;;;4.54;65.31;102253.41;5038986;28;20049;-63
2022/01/22 09:06:06;;;;;;;72.05;35.10;;;;;;;4.68;64.81;102258.50;5040447;28;20048;-62
2022/01/22 09:08:33;;;;;;;72.95;35.38;;;;;;;4.72;65.19;102260.19;5040393;28;20163;-62
2022/01/22 09:11:00;;;;;;;74.65;34.22;;;;;;;5.01;63.91;102251.31;5040653;28;20044;-62
2022/01/22 09:13:28;;;;;;;68.53;34.40;;;;;;;5.21;63.79;102249.38;5044579;28;20489;-63
2022/01/22 09:15:55;;;;;;;70.55;35.00;;;;;;;5.29;63.67;102258.84;5034160;28;20048;-62
2022/01/22 09:18:22;;;;;;;77.00;36.60;;;;;;;5.38;63.37;102261.34;5039947;28;20045;-62
2022/01/22 09:23:17;;;;;;;72.80;34.08;;;;;;;5.65;62.68;102255.00;5035077;28;20057;-62
2022/01/22 09:25:45;;;;;;;78.68;36.03;;;;;;;5.68;62.80;102249.72;5037893;28;20042;-63
2022/01/22 09:28:13;;;;;;;78.13;37.08;;;;;;;5.60;63.05;102250.69;5029210;28;20050;-59
2022/01/22 09:30:42;;;;;;;82.65;37.67;;;;;;;5.73;62.61;102244.47;5031532;28;20045;-60
2022/01/22 09:33:09;;;;;;;76.30;36.50;;;;;;;5.71;62.53;102231.47;5038816;28;20075;-62
2022/01/22 09:35:35;;;;;;;81.82;37.55;;;;;;;5.76;62.40;102220.13;5038157;28;20049;-62
2022/01/22 09:38:02;;;;;;;83.68;38.05;;;;;;;5.74;62.76;102222.78;5029334;28;20421;-61
2022/01/22 09:40:29;;;;;;;84.35;37.30;;;;;;;5.99;61.80;102207.72;5029394;28;20108;-62
2022/01/22 09:42:58;;;;;;;84.38;37.67;;;;;;;5.94;61.95;102206.00;5028523;28;20541;-61
2022/01/22 09:45:29;;;;;;;80.55;36.35;;;;;;;6.14;61.16;102196.19;5037691;28;20077;-61
2022/01/22 09:47:58;;;;;;;85.18;35.90;;;;;;;6.56;60.46;102195.53;5041419;28;20045;-61
2022/01/22 09:50:28;;;;;;;85.32;36.22;;;;;;;6.67;60.44;102201.44;5039503;28;20049;-62
2022/01/22 09:52:55;;;;;;;83.30;38.70;;;;;;;6.67;60.27;102211.03;5035639;28;20065;-61
2022/01/22 09:55:22;;;;;;;82.68;37.28;;;;;;;6.83;59.92;102222.06;5028924;28;20045;-61
2022/01/22 09:57:50;;;;;;;86.88;38.20;;;;;;;6.92;59.57;102219.31;5028903;28;20490;-61
2022/01/22 10:00:20;;;;;;;87.28;38.47;;;;;;;7.14;59.37;102218.91;5028152;28;20414;-61
2022/01/22 10:02:49;;;;;;;89.10;39.95;;;;;;;7.33;58.86;102219.44;5028799;28;20103;-61
2022/01/22 10:05:36;;;;;;;95.45;39.63;;;;;;;7.39;58.50;102221.06;5028581;28;20045;-65
2022/01/22 10:08:16;;;;;;;94.60;39.08;;;;;;;7.60;58.03;102230.22;5029013;28;20049;-60
2022/01/22 10:10:43;;;;;;;91.65;39.50;;;;;;;7.42;59.04;102242.75;5027586;28;20046;-60
2022/01/22 10:13:10;;;;;;;85.53;39.22;;;;;;;7.64;58.26;102239.72;5028628;28;20076;-60
2022/01/22 10:15:39;;;;;;;93.85;44.47;;;;;;;8.02;57.50;102240.66;5027617;28;20056;-61
2022/01/22 10:18:07;;;;;;;117.03;54.78;;;;;;;7.96;57.55;102238.19;5028330;28;20870;-62
2022/01/22 10:20:40;;;;;;;97.30;46.03;;;;;;;8.04;57.40;102227.56;5041958;28;20099;-61
2022/01/22 10:23:20;;;;;;;98.70;44.83;;;;;;;8.04;57.08;102244.13;5048043;28;20793;-61
2022/01/22 10:25:57;;;;;;;114.00;54.25;;;;;;;8.04;57.48;102227.56;5048361;28;20045;-63
2022/01/22 10:28:26;;;;;;;99.88;44.80;;;;;;;8.09;57.13;102229.19;5048647;28;20417;-61
2022/01/22 10:30:59;;;;;;;97.93;44.42;;;;;;;8.07;57.30;102219.66;5048277;28;20056;-61
2022/01/22 10:33:33;;;;;;;111.65;54.28;;;;;;;8.31;56.67;102210.41;5048702;28;20053;-64
2022/01/22 10:36:18;;;;;;;201.10;92.45;;;;;;;8.54;56.37;102225.56;5039950;28;20103;-61
2022/01/22 10:38:53;;;;;;;129.50;61.40;;;;;;;8.57;56.42;102224.63;5026203;28;20110;-60
2022/01/22 10:41:38;;;;;;;114.47;53.75;;;;;;;8.79;55.47;102223.19;5047587;28;20061;-62
2022/01/22 10:44:08;;;;;;;110.30;51.38;;;;;;;8.65;55.88;102220.94;5048706;28;20045;-62
2022/01/22 10:49:36;;;;;;;94.72;43.35;;;;;;;8.73;55.65;102207.66;5048080;28;20103;-61
2022/01/22 10:52:04;;;;;;;90.90;42.53;;;;;;;8.89;55.23;102209.88;5041393;28;20045;-61
2022/01/22 10:54:36;;;;;;;91.05;45.58;;;;;;;9.05;54.80;102211.19;5039003;28;20057;-65
2022/01/22 10:57:15;;;;;;;91.80;42.90;;;;;;;9.17;54.69;102202.16;5039011;28;20049;-61
2022/01/22 10:59:50;;;;;;;84.55;40.35;;;;;;;9.47;53.79;102187.34;5036912;28;20107;-61
2022/01/22 11:02:18;;;;;;;84.18;40.20;;;;;;;9.55;53.55;102167.91;5015577;28;20062;-61
2022/01/22 11:04:45;;;;;;;89.53;41.05;;;;;;;9.62;53.44;102151.97;5036216;28;20451;-61
2022/01/22 11:07:17;;;;;;;86.20;41.42;;;;;;;9.31;54.07;102144.16;5038541;28;20064;-61
2022/01/22 11:09:59;;;;;;;89.97;40.70;;;;;;;9.05;54.84;102153.59;5038635;28;20590;-61
2022/01/22 11:12:26;;;;;;;98.72;45.00;;;;;;;9.06;54.85;102163.16;5040203;28;20065;-62
2022/01/22 11:14:53;;;;;;;91.72;43.45;;;;;;;9.04;54.62;102180.69;5027541;28;20057;-61
2022/01/22 11:17:24;;;;;;;91.82;48.50;;;;;;;8.99;54.77;102201.75;5030106;28;20420;-62
2022/01/22 11:19:51;;;;;;;84.78;38.70;;;;;;;9.06;54.75;102209.44;5041790;28;20046;-61
2022/01/22 11:22:19;;;;;;;156.63;79.35;;;;;;;8.94;54.99;102200.16;5041651;28;20041;-60
2022/01/22 11:24:48;;;;;;;197.27;115.03;;;;;;;8.93;54.78;102190.59;5037429;28;20049;-62
2022/01/22 11:27:17;;;;;;;226.57;119.15;;;;;;;8.80;55.25;102166.50;5030674;28;20096;-61
2022/01/22 11:29:53;;;;;;;137.20;67.75;;;;;;;8.77;55.04;102143.88;5032832;28;20045;-62
2022/01/22 11:32:25;;;;;;;136.32;68.13;;;;;;;8.62;55.41;102145.13;5038883;28;20056;-61
2022/01/22 11:35:00;;;;;;;124.75;60.90;;;;;;;8.76;54.70;102122.97;5035973;28;20052;-61
2022/01/22 11:37:47;;;;;;;97.03;48.78;;;;;;;8.60;54.61;102119.91;5034640;28;20868;-60
2022/01/22 11:40:15;;;;;;;242.43;107.90;;;;;;;8.42;55.06;102126.44;5031086;28;20143;-62
2022/01/22 11:43:01;;;;;;;107.50;50.58;;;;;;;8.66;54.68;102132.84;5017882;28;20065;-62
2022/01/22 11:45:35;;;;;;;121.68;55.45;;;;;;;8.45;54.58;102124.59;5025122;28;20049;-61
2022/01/22 11:48:08;;;;;;;130.38;56.05;;;;;;;8.64;54.00;102122.38;5029078;28;20068;-61
2022/01/22 11:50:35;;;;;;;123.90;58.08;;;;;;;8.74;53.92;102124.78;5036389;28;20048;-61
2022/01/22 11:53:26;;;;;;;158.05;71.13;;;;;;;8.80;53.65;102133.31;5038626;28;20046;-61
2022/01/22 11:56:10;;;;;;;104.57;45.67;;;;;;;8.92;53.26;102137.34;5034406;28;20052;-61
2022/01/22 11:58:55;;;;;;;73.53;37.30;;;;;;;8.89;53.32;102132.22;5032174;28;20042;-61
2022/01/22 12:01:37;;;;;;;75.78;38.75;;;;;;;8.93;53.18;102120.75;5033364;28;20081;-62
2022/01/22 12:04:09;;;;;;;77.10;38.80;;;;;;;9.06;52.65;102097.69;5033279;28;20129;-61
2022/01/22 12:07:00;;;;;;;;;;;;;;;9.03;52.76;102097.78;5036177;28;20575;-61
2022/01/22 12:10:05;;;;;;;87.95;41.30;;;;;;;9.04;52.27;102093.41;5023531;28;19928;-61
2022/01/22 12:15:30;;;;;;;79.13;40.13;;;;;;;9.10;52.30;102098.47;5027375;28;20111;-62
2022/01/22 12:18:08;;;;;;;84.53;41.33;;;;;;;9.17;52.20;102097.41;5035813;28;20045;-61
2022/01/22 12:23:18;;;;;;;60.20;32.42;;;;;;;9.35;51.82;102100.41;5021198;28;20095;-61
2022/01/22 12:25:44;;;;;;;87.90;39.33;;;;;;;9.28;52.13;102087.47;5033147;28;20049;-61
2022/01/22 12:28:13;;;;;;;64.70;31.70;;;;;;;9.23;51.92;102086.75;5028907;28;20241;-60
2022/01/22 12:30:51;;;;;;;74.50;35.38;;;;;;;9.21;51.93;102070.22;5031510;28;20045;-62
2022/01/22 12:33:30;;;;;;;106.78;57.67;;;;;;;9.18;51.83;102066.81;5028137;28;20049;-61
2022/01/22 12:36:06;;;;;;;77.72;39.90;;;;;;;9.18;51.48;102062.47;5033055;28;20049;-61
2022/01/22 12:38:46;;;;;;;105.25;50.72;;;;;;;9.17;51.63;102065.97;5020959;28;20119;-61
2022/01/22 12:41:31;;;;;;;99.55;46.92;;;;;;;9.24;51.47;102066.66;5030476;28;20049;-61
2022/01/22 12:44:07;;;;;;;79.63;42.53;;;;;;;9.27;51.56;102061.34;5030163;28;20387;-62
2022/01/22 12:46:49;;;;;;;110.60;51.40;;;;;;;9.38;51.36;102061.00;5028128;28;20058;-62
2022/01/22 12:49:17;;;;;;;94.00;44.65;;;;;;;9.46;51.26;102059.84;5030358;28;20103;-61
2022/01/22 12:51:43;;;;;;;65.07;30.75;;;;;;;9.26;51.56;102064.84;5030375;28;20041;-61
2022/01/22 12:54:10;;;;;;;55.22;28.13;;;;;;;9.06;51.68;102058.41;5030353;28;20099;-61
2022/01/22 12:57:08;;;;;;;61.35;29.42;;;;;;;8.99;51.66;102054.28;5028004;28;20502;-63
2022/01/22 13:00:02;;;;;;;60.72;31.23;;;;;;;8.88;51.95;102048.50;5029923;28;20091;-61
2022/01/22 13:02:39;;;;;;;68.07;35.42;;;;;;;8.73;52.23;102027.06;5030125;28;20092;-61